Terminal Aerodrome Forecast
Issued by NWS Louisville, KY

Home | Current Version | Previous Version | Text Only | Print | Product List | Glossary On
Versions: 1 2 3 4 5 6 7 8 9 10 11 12 13 14 15
845
FTUS43 KLMK 220521
TAFSDF
TAF
KSDF 220521Z 2206/2312 14005KT P6SM BKN110
     FM221000 07005KT 5SM BR VCSH SCT010 BKN035
     FM221800 08009KT 3SM -SHRA VCTS BKN010CB
     FM230100 01012G18KT 4SM -SHRA BR BKN010=

USA.gov is the U.S. government's official web portal to all federal, state and local government web resources and services.